Sunday, December 21, 2014, 10:05 AM EST

KSHD, Staunton / Shenandoah

Location: Weyers Cave, VA, United States Lat: 38.267
Local Time: 10:05 AM EST (15:05 GMT) Lon: -78.9
Time Zone: US/Eastern Elev: 1200 ft

Show me the last for .
Show Decoded

2014-12-21 09:35 METAR KSHD 211435Z AUTO 00000KT 10SM OVC048 01/M03 A3032 RMK AO2 T00071030 =
2014-12-21 09:15 METAR KSHD 211415Z AUTO 00000KT 10SM OVC048 01/M03 A3032 RMK AO2 T00051030 =
2014-12-21 08:55 METAR KSHD 211355Z AUTO 00000KT 10SM OVC046 00/M03 A3031 RMK AO2 T00021030 =
2014-12-21 08:35 METAR KSHD 211335Z AUTO 00000KT 10SM OVC046 00/M03 A3030 RMK AO2 T00001030 =
2014-12-21 08:15 METAR KSHD 211315Z AUTO 00000KT 7SM OVC046 00/M02 A3030 RMK AO2 T00001025 =
2014-12-21 07:55 METAR KSHD 211255Z AUTO 00000KT 10SM OVC048 00/M03 A3030 RMK AO2 T00001026 =
2014-12-21 07:35 METAR KSHD 211235Z AUTO 00000KT 10SM OVC048 00/M03 A3030 RMK AO2 T00001032 =
2014-12-21 07:15 METAR KSHD 211215Z AUTO 00000KT 10SM OVC048 00/M03 A3029 RMK AO2 T00001029 =
2014-12-21 06:55 METAR KSHD 211155Z AUTO 00000KT 7SM OVC048 00/M02 A3029 RMK AO2 T00001025 10002
                 20000 =
2014-12-21 06:35 METAR KSHD 211135Z AUTO 00000KT 10SM OVC048 00/M03 A3029 RMK AO2 T00011027 =
2014-12-21 06:15 METAR KSHD 211115Z AUTO 00000KT 10SM OVC048 00/M03 A3028 RMK AO2 T00001027 =
2014-12-21 05:55 METAR KSHD 211055Z AUTO 00000KT 10SM OVC048 00/M03 A3027 RMK AO2 T00001028 =
2014-12-21 05:35 METAR KSHD 211035Z AUTO 00000KT 10SM OVC048 00/M03 A3027 RMK AO2 T00001028 =
2014-12-21 05:15 METAR KSHD 211015Z AUTO 00000KT 10SM OVC050 00/M03 A3026 RMK AO2 T00001026 =
2014-12-21 04:55 METAR KSHD 210955Z AUTO 00000KT 10SM OVC050 00/M03 A3026 RMK AO2 T00021030 =
2014-12-21 04:35 METAR KSHD 210935Z AUTO 00000KT 10SM OVC050 00/M03 A3026 RMK AO2 T00001028 =
2014-12-21 04:15 METAR KSHD 210915Z AUTO 00000KT 10SM OVC050 00/M03 A3026 RMK AO2 T00001026 =
2014-12-21 03:55 METAR KSHD 210855Z AUTO 00000KT 10SM OVC060 00/M03 A3026 RMK AO2 T00001030 =
2014-12-21 03:35 METAR KSHD 210835Z AUTO 00000KT 10SM OVC060 00/M03 A3026 RMK AO2 T00001030 =
2014-12-21 03:15 METAR KSHD 210815Z AUTO 00000KT 10SM OVC060 00/M03 A3026 RMK AO2 T00001030 =
2014-12-21 02:55 METAR KSHD 210755Z AUTO 00000KT 10SM OVC060 00/M03 A3026 RMK AO2 T00001031 =
2014-12-21 02:35 METAR KSHD 210735Z AUTO 00000KT 10SM OVC060 00/M03 A3026 RMK AO2 T00001035 =
2014-12-21 02:15 METAR KSHD 210715Z AUTO 00000KT 10SM OVC060 00/M03 A3025 RMK AO2 T00001031 =
2014-12-21 01:55 METAR KSHD 210655Z AUTO 00000KT 10SM OVC060 00/M03 A3025 RMK AO2 T00001032 =
2014-12-21 01:35 METAR KSHD 210635Z AUTO 00000KT 10SM OVC060 00/M03 A3025 RMK AO2 T00001030 =
2014-12-21 01:15 METAR KSHD 210615Z AUTO 00000KT 10SM OVC060 00/M03 A3025 RMK AO2 T00011034 =
2014-12-21 00:55 METAR KSHD 210555Z AUTO 00000KT 10SM OVC060 00/M03 A3025 RMK AO2 T00021032 10012
                 20000 400251075 =
2014-12-21 00:35 METAR KSHD 210535Z AUTO 00000KT 10SM OVC060 00/M03 A3025 RMK AO2 T00011035 =
2014-12-21 00:15 METAR KSHD 210515Z AUTO 00000KT 10SM OVC060 00/M03 A3025 RMK AO2 T00011032 =
2014-12-20 23:55 METAR KSHD 210455Z AUTO 00000KT 10SM OVC060 00/M03 A3025 RMK AO2 T00021033 =
2014-12-20 23:35 METAR KSHD 210435Z AUTO 00000KT 10SM OVC070 00/M03 A3025 RMK AO2 T00031032 =
2014-12-20 23:15 METAR KSHD 210415Z AUTO 00000KT 10SM OVC070 00/M03 A3025 RMK AO2 T00041035 =
2014-12-20 22:55 METAR KSHD 210355Z AUTO 00000KT 10SM OVC070 00/M03 A3025 RMK AO2 T00001030 =
2014-12-20 22:35 METAR KSHD 210335Z AUTO 00000KT 10SM OVC070 00/M03 A3025 RMK AO2 T00001030 =
2014-12-20 22:15 METAR KSHD 210315Z AUTO 00000KT 10SM OVC070 00/M03 A3025 RMK AO2 T00011031 =
2014-12-20 21:55 METAR KSHD 210255Z AUTO 00000KT 10SM OVC070 01/M03 A3025 RMK AO2 T00051035 =
2014-12-20 21:35 METAR KSHD 210235Z AUTO 00000KT 10SM OVC070 01/M04 A3025 RMK AO2 T00071036 =
2014-12-20 21:15 METAR KSHD 210215Z AUTO 00000KT 10SM OVC080 01/M03 A3025 RMK AO2 T00051035 =
2014-12-20 20:55 METAR KSHD 210155Z AUTO 00000KT 10SM OVC080 01/M03 A3025 RMK AO2 T00051035 =
2014-12-20 20:35 METAR KSHD 210135Z AUTO 00000KT 10SM OVC080 01/M04 A3025 RMK AO2 T00081036 =
2014-12-20 20:15 METAR KSHD 210115Z AUTO 00000KT 10SM OVC080 01/M03 A3025 RMK AO2 T00071033 =
2014-12-20 19:55 METAR KSHD 210055Z AUTO 00000KT 10SM OVC080 01/M03 A3025 RMK AO2 T00071034 =
2014-12-20 19:35 METAR KSHD 210035Z AUTO 00000KT 10SM OVC080 01/M03 A3025 RMK AO2 T00051034 =
2014-12-20 19:15 METAR KSHD 210015Z AUTO 00000KT 10SM OVC080 01/M03 A3024 RMK AO2 T00091033 =
2014-12-20 18:55 METAR KSHD 202355Z AUTO 00000KT 10SM SCT065 OVC080 01/M03 A3024 RMK AO2
                 T00101032 10025 20010 =
2014-12-20 18:35 METAR KSHD 202335Z AUTO 00000KT 10SM BKN065 OVC080 02/M04 A3024 RMK AO2
                 T00151036 =
2014-12-20 18:15 METAR KSHD 202315Z AUTO 00000KT 10SM OVC065 02/M03 A3023 RMK AO2 T00151035 =
2014-12-20 17:55 METAR KSHD 202255Z AUTO 00000KT 10SM OVC065 02/M04 A3023 RMK AO2 T00151037 =
2014-12-20 17:35 METAR KSHD 202235Z AUTO 35004KT 10SM OVC065 02/M04 A3023 RMK AO2 T00171036 =
2014-12-20 17:15 METAR KSHD 202215Z AUTO 35004KT 10SM OVC065 02/M03 A3022 RMK AO2 T00201035 =
2014-12-20 16:55 METAR KSHD 202155Z AUTO 35003KT 10SM OVC065 02/M04 A3022 RMK AO2 T00201037 =
2014-12-20 16:35 METAR KSHD 202135Z AUTO 00000KT 10SM OVC065 02/M04 A3022 RMK AO2 T00221036 =
2014-12-20 16:15 METAR KSHD 202115Z AUTO 34003KT 10SM BKN065 OVC080 02/M04 A3021 RMK AO2
                 T00241036 =
2014-12-20 15:55 METAR KSHD 202055Z AUTO 00000KT 10SM OVC080 02/M04 A3021 RMK AO2 T00241037 =
2014-12-20 15:35 METAR KSHD 202035Z AUTO 00000KT 10SM OVC080 03/M04 A3020 RMK AO2 T00251037 =
2014-12-20 15:15 METAR KSHD 202015Z AUTO 00000KT 10SM OVC080 03/M04 A3020 RMK AO2 T00251038 =
2014-12-20 14:55 METAR KSHD 201955Z AUTO 00000KT 10SM OVC090 02/M04 A3020 RMK AO2 T00231037 =
2014-12-20 14:35 METAR KSHD 201935Z AUTO 00000KT 10SM SCT070 OVC090 03/M04 A3020 RMK AO2
                 T00251037 =
2014-12-20 14:15 METAR KSHD 201915Z AUTO 00000KT 10SM OVC070 02/M04 A3020 RMK AO2 T00221039 =
2014-12-20 13:55 METAR KSHD 201855Z AUTO 00000KT 10SM OVC080 02/M04 A3020 RMK AO2 T00201042 =
2014-12-20 13:35 METAR KSHD 201835Z AUTO 00000KT 10SM SCT070 OVC080 02/M04 A3021 RMK AO2
                 T00181040 =
2014-12-20 13:15 METAR KSHD 201815Z AUTO 00000KT 10SM SCT070 OVC090 01/M04 A3022 RMK AO2
                 T00131044 =
2014-12-20 12:55 METAR KSHD 201755Z AUTO 00000KT 10SM SCT050 SCT070 OVC100 01/M05 A3023 RMK AO2
                 T00111046 10011 21047 =
2014-12-20 12:35 METAR KSHD 201735Z AUTO 16003KT 10SM SCT065 BKN080 OVC090 01/M05 A3023 RMK AO2
                 T00071051 =
2014-12-20 11:55 METAR KSHD 201655Z AUTO 00000KT 10SM OVC090 00/M05 A3025 RMK AO2 T00001048 =
2014-12-20 11:35 METAR KSHD 201635Z AUTO 00000KT 10SM OVC100 00/M05 A3026 RMK AO2 T00001051 =
2014-12-20 11:15 METAR KSHD 201615Z AUTO 00000KT 10SM OVC110 00/M05 A3027 RMK AO2 T00001049 =
2014-12-20 10:55 METAR KSHD 201555Z AUTO 00000KT 10SM OVC110 00/M05 A3028 RMK AO2 T10051047 =
2014-12-20 10:35 METAR KSHD 201535Z AUTO 00000KT 10SM OVC120 M01/M05 A3028 RMK AO2 T10141049 =
2014-12-20 10:15 METAR KSHD 201515Z AUTO 00000KT 10SM OVC110 M02/M05 A3028 RMK AO2 T10171048 =

Support USWX by starting your Amazon purchase here.